Aérodrome :
LOGIN :

S'inscrire | Disclaimer

   EN    FR    IT 

 










Légende :    VFR   VFR Marginal   IFR   IFR Intensif   IFR Très Intensif
Visi : 
Plafond : 
>= 8 km
>= 3000ft
5 à 8 km
1000 à 3000 ft
1500m à 5 km
500 à 1000 ft
800 à 1500m
200 à 500 ft
< 800m
< 200 ft
Symboles :   Orages  Brouillard  Fortes neiges  Fortes précipitations  Vent > 20 kt
SIGMETs :   Divers  Orages  Givrage  Turbulence  Onde Orograph.  Cendres Volcan.






- Altitude de l'aérodrome : 1339 ft


ETHN - Niederstetten

DERNIER METAR :
  • 301420Z 25029G39KT 9999 VCSH SCT033CB SCT120 BKN200 14/06 Q1010 BLU+BLU TEMPO YLO

METARs EXPIRÉS :
  • 301320Z 25019KT 9999 VCSH FEW025CB SCT120 BKN200 13/08 Q1011 BLU+BLU TEMPO YLO
  • 301220Z 26021G33KT 9999 SCT021 BKN110 BKN200 13/08 Q1012 BLU BLU TEMPO YLO

TAF TAF ETHN
Valide du 30 à 14h jusqu'au 30 à 23h UTC


301300Z 3014/3023 25015G25KT 9999 NSW BKN030 BKN090
TEMPO 3014/3018 26020G35KT 3000 SHRA BKN012CB
BECMG 3018/3020 24012KT 9999 NSW SCT060



MET'MAP, la Météo Aéronautique d'un coup d'oeil ! - Copyright ORBIFLY Décembre 2007 - Disclaimer

ORBIFLY MET'MAP TEAM :

Programmation & Développement : Alexandra Zaïnal
Sur une idée originale de : Baudouin d'Aumeries
Soutien technique & logistique : Manuel Goepfert
Assistance : Marc-Olivier Méhu




SOURCES & CREDITS :

   NOAA